createdAt,value
2018-03-03T00:00:12.266Z,68.48
2018-03-03T00:01:19.148Z,68.49
2018-03-03T00:02:26.210Z,68.49
2018-03-03T00:03:33.254Z,68.54
2018-03-03T00:04:39.952Z,68.55
2018-03-03T00:05:46.689Z,68.55
2018-03-03T00:06:53.400Z,68.58
2018-03-03T00:08:00.153Z,68.58
2018-03-03T00:09:06.877Z,68.57
2018-03-03T00:10:13.582Z,68.64
2018-03-03T00:11:20.453Z,68.65
2018-03-03T00:12:27.347Z,68.63
2018-03-03T00:13:34.485Z,68.67
2018-03-03T00:14:41.177Z,68.71
2018-03-03T00:15:47.894Z,68.70
2018-03-03T00:16:54.789Z,68.70
2018-03-03T00:18:01.494Z,68.70
2018-03-03T00:19:08.306Z,68.71
2018-03-03T00:20:14.966Z,68.70
2018-03-03T00:21:21.700Z,68.72
2018-03-03T00:22:28.402Z,68.73
2018-03-03T00:23:35.285Z,68.75
2018-03-03T00:24:42.037Z,68.75
2018-03-03T00:25:48.889Z,68.75
2018-03-03T00:26:55.598Z,68.71
2018-03-03T00:28:02.711Z,68.68
2018-03-03T00:29:09.460Z,68.71
2018-03-03T00:30:16.189Z,68.71
2018-03-03T00:31:22.866Z,68.72
2018-03-03T00:32:29.550Z,68.71
2018-03-03T00:33:36.265Z,68.72
2018-03-03T00:34:43.244Z,68.73
2018-03-03T00:35:49.918Z,68.76
2018-03-03T00:36:56.625Z,68.77
2018-03-03T00:38:03.426Z,68.76
2018-03-03T00:39:10.121Z,68.77
2018-03-03T00:40:16.824Z,68.79
2018-03-03T00:41:23.498Z,68.80
2018-03-03T00:42:30.238Z,68.82
2018-03-03T00:43:36.961Z,68.81
2018-03-03T00:44:43.693Z,68.80
2018-03-03T00:45:50.404Z,68.85
2018-03-03T00:46:57.559Z,68.81
2018-03-03T00:48:04.250Z,68.82
2018-03-03T00:49:10.974Z,68.82
2018-03-03T00:50:17.649Z,68.82
2018-03-03T00:51:24.326Z,68.85
2018-03-03T00:52:31.097Z,68.88
2018-03-03T00:53:37.805Z,68.86
2018-03-03T00:54:44.566Z,68.83
2018-03-03T00:55:51.289Z,68.85
2018-03-03T00:56:57.986Z,68.87
2018-03-03T00:58:04.944Z,68.86
2018-03-03T00:59:11.622Z,68.85
2018-03-03T01:00:18.332Z,68.81
2018-03-03T01:01:25.256Z,68.84
2018-03-03T01:02:31.966Z,68.89
2018-03-03T01:03:38.740Z,68.92
2018-03-03T01:04:45.455Z,68.92
2018-03-03T01:05:52.222Z,68.91
2018-03-03T01:06:58.943Z,68.91
2018-03-03T01:08:05.650Z,68.92
2018-03-03T01:09:12.344Z,68.87
2018-03-03T01:10:19.117Z,68.89
2018-03-03T01:11:25.778Z,68.89
2018-03-03T01:12:32.512Z,68.93
2018-03-03T01:13:39.194Z,68.95
2018-03-03T01:14:45.902Z,68.97
2018-03-03T01:15:52.630Z,68.98
2018-03-03T01:16:59.357Z,69.01
2018-03-03T01:18:06.075Z,69.03
2018-03-03T01:19:12.754Z,69.03
2018-03-03T01:20:19.558Z,69.05
2018-03-03T01:21:26.497Z,69.10
2018-03-03T01:22:33.181Z,69.14
2018-03-03T01:23:39.970Z,69.15
2018-03-03T01:24:46.952Z,69.12
2018-03-03T01:25:53.778Z,69.12
2018-03-03T01:27:00.589Z,69.10
2018-03-03T01:28:07.478Z,69.07
2018-03-03T01:29:14.351Z,69.03
2018-03-03T01:30:21.198Z,69.02
2018-03-03T01:31:28.009Z,69.01
2018-03-03T01:32:34.913Z,68.99
2018-03-03T01:33:42.421Z,68.97
2018-03-03T01:34:48.785Z,69.03
2018-03-03T01:35:55.638Z,69.03
2018-03-03T01:37:02.342Z,69.08
2018-03-03T01:38:09.397Z,69.09
2018-03-03T01:39:16.360Z,69.09
2018-03-03T01:40:23.430Z,69.10
2018-03-03T01:41:30.144Z,69.07
2018-03-03T01:42:37.300Z,69.09
2018-03-03T01:43:44.460Z,69.07
2018-03-03T01:44:51.126Z,69.14
2018-03-03T01:45:57.857Z,69.17
2018-03-03T01:47:04.543Z,69.19
2018-03-03T01:48:11.254Z,69.20
2018-03-03T01:49:17.978Z,69.23
2018-03-03T01:50:24.640Z,69.27
2018-03-03T01:51:31.857Z,69.23
2018-03-03T01:52:38.999Z,69.23
2018-03-03T01:53:45.778Z,69.26
2018-03-03T01:54:52.594Z,69.29
2018-03-03T01:55:59.625Z,69.27
2018-03-03T01:57:06.328Z,69.25
2018-03-03T01:58:13.056Z,69.21
2018-03-03T01:59:19.757Z,69.16
2018-03-03T02:00:26.582Z,69.17
2018-03-03T02:01:33.316Z,69.10
2018-03-03T02:02:40.011Z,69.14
2018-03-03T02:03:46.721Z,69.11
2018-03-03T02:04:53.476Z,69.10
2018-03-03T02:06:00.240Z,69.12
2018-03-03T02:07:06.935Z,69.15
2018-03-03T02:08:13.669Z,69.12
2018-03-03T02:09:20.348Z,69.11
2018-03-03T02:10:27.121Z,69.08
2018-03-03T02:11:33.856Z,69.14
2018-03-03T02:12:40.536Z,69.15
2018-03-03T02:13:47.215Z,69.17
2018-03-03T02:14:53.893Z,69.17
2018-03-03T02:16:00.682Z,69.18
2018-03-03T02:17:07.446Z,69.18
2018-03-03T02:18:14.269Z,69.18
2018-03-03T02:19:20.960Z,69.22
2018-03-03T02:20:27.743Z,69.22
2018-03-03T02:21:34.565Z,69.24
2018-03-03T02:22:41.254Z,69.25
2018-03-03T02:23:47.937Z,69.27
2018-03-03T02:24:54.665Z,69.27
2018-03-03T02:26:01.424Z,69.30
2018-03-03T02:27:08.156Z,69.31
2018-03-03T02:28:14.887Z,69.30
2018-03-03T02:29:21.569Z,69.27
2018-03-03T02:30:28.279Z,69.30
2018-03-03T02:31:34.993Z,69.30
2018-03-03T02:32:41.773Z,69.31
2018-03-03T02:33:48.436Z,69.35
2018-03-03T02:34:55.171Z,69.32
2018-03-03T02:36:01.939Z,69.35
2018-03-03T02:37:08.657Z,69.37
2018-03-03T02:38:15.485Z,69.41
2018-03-03T02:39:22.210Z,69.44
2018-03-03T02:40:28.945Z,69.49
2018-03-03T02:41:35.741Z,69.46
2018-03-03T02:42:42.586Z,69.49
2018-03-03T02:43:49.304Z,69.52
2018-03-03T02:44:56.070Z,69.57
2018-03-03T02:46:02.928Z,69.55
2018-03-03T02:47:09.695Z,69.54
2018-03-03T02:48:16.558Z,69.53
2018-03-03T02:49:23.437Z,69.59
2018-03-03T02:50:30.142Z,69.61
2018-03-03T02:51:36.913Z,69.68
2018-03-03T02:52:43.715Z,69.67
2018-03-03T02:53:50.532Z,69.71
2018-03-03T02:54:57.288Z,69.75
2018-03-03T02:56:04.001Z,69.75
2018-03-03T02:57:10.733Z,69.76
2018-03-03T02:58:17.489Z,69.75
2018-03-03T02:59:24.271Z,69.75
2018-03-03T03:00:31.089Z,69.77
2018-03-03T03:01:37.810Z,69.77
2018-03-03T03:02:44.569Z,69.77
2018-03-03T03:03:51.352Z,69.79
2018-03-03T03:04:58.088Z,69.86
2018-03-03T03:06:04.831Z,69.86
2018-03-03T03:07:11.541Z,69.97
2018-03-03T03:08:18.266Z,70.02
2018-03-03T03:09:25.108Z,70.05
2018-03-03T03:10:31.929Z,70.08
2018-03-03T03:11:38.689Z,70.09
2018-03-03T03:12:45.455Z,70.11
2018-03-03T03:13:52.202Z,70.13
2018-03-03T03:14:58.910Z,70.14
2018-03-03T03:16:05.629Z,70.16
2018-03-03T03:17:12.410Z,70.16
2018-03-03T03:18:19.150Z,70.20
2018-03-03T03:19:25.877Z,70.18
2018-03-03T03:20:32.798Z,70.22
2018-03-03T03:21:39.559Z,70.24
2018-03-03T03:22:46.361Z,70.24
2018-03-03T03:23:53.104Z,70.35
2018-03-03T03:24:59.982Z,70.29
2018-03-03T03:26:06.753Z,70.28
2018-03-03T03:27:13.566Z,70.30
2018-03-03T03:28:20.381Z,70.35
2018-03-03T03:29:27.167Z,70.36
2018-03-03T03:30:33.883Z,70.35
2018-03-03T03:31:40.634Z,70.33
2018-03-03T03:32:47.398Z,70.36
2018-03-03T03:33:54.160Z,70.40
2018-03-03T03:35:00.888Z,70.41
2018-03-03T03:36:07.686Z,70.43
2018-03-03T03:37:14.470Z,70.42
2018-03-03T03:38:21.346Z,70.45
2018-03-03T03:39:28.113Z,70.44
2018-03-03T03:40:34.827Z,70.45
2018-03-03T03:41:41.580Z,70.51
2018-03-03T03:42:48.398Z,70.54
2018-03-03T03:43:55.141Z,70.53
2018-03-03T03:45:01.916Z,70.57
2018-03-03T03:46:08.683Z,70.53
2018-03-03T03:47:15.441Z,70.52
2018-03-03T03:48:22.333Z,70.56
2018-03-03T03:49:29.046Z,70.59
2018-03-03T03:50:35.782Z,70.59
2018-03-03T03:51:42.534Z,70.57
2018-03-03T03:52:49.270Z,70.63
2018-03-03T03:53:56.030Z,70.57
2018-03-03T03:55:02.763Z,70.57
2018-03-03T03:56:09.537Z,70.56
2018-03-03T03:57:16.361Z,70.55
2018-03-03T03:58:23.334Z,70.61
2018-03-03T03:59:30.037Z,70.60
2018-03-03T04:00:36.763Z,70.63
2018-03-03T04:01:43.722Z,70.65
2018-03-03T04:02:50.450Z,70.64
2018-03-03T04:03:57.229Z,70.65
2018-03-03T04:05:03.965Z,70.67
2018-03-03T04:06:10.677Z,70.71
2018-03-03T04:07:17.490Z,70.65
2018-03-03T04:08:24.236Z,70.64
2018-03-03T04:09:31.002Z,70.63
2018-03-03T04:10:37.738Z,70.63
2018-03-03T04:11:44.586Z,70.64
2018-03-03T04:12:51.337Z,70.67
2018-03-03T04:13:58.082Z,70.62
2018-03-03T04:15:04.845Z,70.63
2018-03-03T04:16:11.656Z,70.64
2018-03-03T04:17:18.376Z,70.68
2018-03-03T04:18:25.170Z,70.66
2018-03-03T04:19:31.909Z,70.63
2018-03-03T04:20:38.606Z,70.62
2018-03-03T04:21:45.385Z,70.68
2018-03-03T04:22:52.163Z,70.71
2018-03-03T04:23:58.913Z,70.72
2018-03-03T04:25:06.033Z,70.79
2018-03-03T04:26:12.487Z,70.79
2018-03-03T04:27:19.272Z,70.73
2018-03-03T04:28:26.060Z,70.71
2018-03-03T04:29:32.895Z,70.71
2018-03-03T04:30:39.725Z,70.75
2018-03-03T04:31:46.722Z,70.77
2018-03-03T04:32:53.512Z,70.80
2018-03-03T04:34:00.289Z,70.83
2018-03-03T04:35:07.110Z,70.84
2018-03-03T04:36:13.819Z,70.84
2018-03-03T04:37:20.611Z,70.84
2018-03-03T04:38:27.369Z,70.84
2018-03-03T04:39:34.176Z,70.85
2018-03-03T04:40:40.912Z,70.84
2018-03-03T04:41:47.658Z,70.86
2018-03-03T04:42:54.404Z,70.90
2018-03-03T04:44:01.139Z,70.89
2018-03-03T04:45:07.945Z,70.92
2018-03-03T04:46:14.726Z,70.91
2018-03-03T04:47:21.470Z,70.90
2018-03-03T04:48:28.293Z,70.87
2018-03-03T04:49:35.056Z,70.90
2018-03-03T04:50:41.919Z,70.88
2018-03-03T04:51:48.800Z,70.88
2018-03-03T04:52:55.849Z,70.90
2018-03-03T04:54:02.637Z,70.92
2018-03-03T04:55:09.506Z,70.93
2018-03-03T04:56:16.366Z,70.92
2018-03-03T04:57:23.154Z,70.93
2018-03-03T04:58:29.965Z,70.89
2018-03-03T04:59:36.829Z,70.90
2018-03-03T05:00:43.637Z,70.90
2018-03-03T05:01:50.425Z,70.92
2018-03-03T05:02:57.641Z,70.96
2018-03-03T05:04:04.426Z,70.97
2018-03-03T05:05:11.275Z,70.99
2018-03-03T05:06:18.123Z,70.98
2018-03-03T05:07:24.785Z,70.99
2018-03-03T05:08:31.606Z,70.99
2018-03-03T05:09:38.421Z,71.04
2018-03-03T05:10:45.335Z,71.05
2018-03-03T05:11:52.123Z,71.02
2018-03-03T05:12:58.929Z,71.08
2018-03-03T05:14:05.937Z,71.11
2018-03-03T05:15:12.720Z,71.15
2018-03-03T05:16:19.547Z,71.18
2018-03-03T05:17:26.329Z,71.22
2018-03-03T05:18:33.160Z,71.22
2018-03-03T05:19:40.004Z,71.24
2018-03-03T05:20:47.113Z,71.29
2018-03-03T05:21:54.014Z,71.33
2018-03-03T05:23:01.137Z,71.39
2018-03-03T05:24:08.175Z,71.44
2018-03-03T05:25:15.265Z,71.45
2018-03-03T05:26:22.234Z,71.47
2018-03-03T05:27:29.052Z,71.50
2018-03-03T05:28:36.164Z,71.52
2018-03-03T05:29:43.368Z,71.57
2018-03-03T05:30:50.321Z,71.59
2018-03-03T05:31:57.264Z,71.65
2018-03-03T05:33:04.201Z,71.65
2018-03-03T05:34:11.364Z,71.67
2018-03-03T05:35:18.190Z,71.71
2018-03-03T05:36:25.302Z,71.76
2018-03-03T05:37:32.364Z,71.80
2018-03-03T05:38:39.252Z,71.84
2018-03-03T05:39:46.012Z,71.87
2018-03-03T05:40:52.837Z,71.90
2018-03-03T05:41:59.672Z,71.89
2018-03-03T05:43:06.443Z,71.93
2018-03-03T05:44:13.258Z,71.96
2018-03-03T05:45:20.210Z,71.94
2018-03-03T05:46:26.936Z,71.97
2018-03-03T05:47:33.808Z,72.01
2018-03-03T05:48:40.539Z,72.00
2018-03-03T05:49:47.335Z,72.04
2018-03-03T05:50:54.080Z,72.05
2018-03-03T05:52:00.865Z,72.10
2018-03-03T05:53:07.633Z,72.14
2018-03-03T05:54:14.450Z,72.19
2018-03-03T05:55:21.292Z,72.21
2018-03-03T05:56:28.145Z,72.21
2018-03-03T05:57:34.941Z,72.24
2018-03-03T05:58:41.813Z,72.25
2018-03-03T05:59:48.590Z,72.27
2018-03-03T06:00:55.331Z,72.30
2018-03-03T06:02:02.125Z,72.27
2018-03-03T06:03:08.923Z,72.25
2018-03-03T06:04:15.688Z,72.26
2018-03-03T06:05:22.450Z,72.26
2018-03-03T06:06:29.302Z,72.25
2018-03-03T06:07:36.202Z,72.26
2018-03-03T06:08:43.068Z,72.28
2018-03-03T06:09:49.853Z,72.25
2018-03-03T06:10:56.657Z,72.27
2018-03-03T06:12:03.381Z,72.27
2018-03-03T06:13:10.173Z,72.31
2018-03-03T06:14:16.912Z,72.32
2018-03-03T06:15:23.613Z,72.38
2018-03-03T06:16:30.374Z,72.42
2018-03-03T06:17:37.342Z,72.50
2018-03-03T06:18:44.148Z,72.58
2018-03-03T06:19:51.115Z,72.57
2018-03-03T06:20:58.140Z,72.65
2018-03-03T06:22:04.827Z,72.70
2018-03-03T06:23:11.636Z,72.68
2018-03-03T06:24:18.289Z,72.71
2018-03-03T06:25:25.056Z,72.75
2018-03-03T06:26:31.993Z,72.77
2018-03-03T06:27:38.851Z,72.76
2018-03-03T06:28:45.601Z,72.72
2018-03-03T06:29:52.298Z,72.74
2018-03-03T06:30:58.984Z,72.80
2018-03-03T06:32:05.694Z,72.83
2018-03-03T06:33:12.489Z,72.88
2018-03-03T06:34:19.281Z,72.93
2018-03-03T06:35:26.112Z,72.99
2018-03-03T06:36:32.824Z,73.01
2018-03-03T06:37:39.525Z,73.09
2018-03-03T06:38:46.706Z,73.11
2018-03-03T06:39:53.477Z,73.12
2018-03-03T06:41:00.163Z,73.13
2018-03-03T06:42:06.878Z,73.19
2018-03-03T06:43:13.696Z,73.15
2018-03-03T06:44:20.380Z,73.17
2018-03-03T06:45:27.178Z,73.21
2018-03-03T06:46:33.851Z,73.21
2018-03-03T06:47:40.532Z,73.24
2018-03-03T06:48:47.761Z,73.26
2018-03-03T06:49:54.441Z,73.32
2018-03-03T06:51:01.136Z,73.40
2018-03-03T06:52:07.837Z,73.45
2018-03-03T06:53:14.488Z,73.50
2018-03-03T06:54:21.657Z,73.52
2018-03-03T06:55:28.332Z,73.63
2018-03-03T06:56:35.052Z,73.68
2018-03-03T06:57:41.745Z,73.73
2018-03-03T06:58:48.457Z,73.70
2018-03-03T06:59:55.190Z,73.70
2018-03-03T07:01:01.932Z,73.72
2018-03-03T07:02:08.581Z,73.77
2018-03-03T07:03:15.256Z,73.80
2018-03-03T07:04:22.463Z,73.88
2018-03-03T07:05:29.446Z,73.90
2018-03-03T07:06:36.695Z,73.92
2018-03-03T07:07:42.969Z,73.96
2018-03-03T07:08:49.998Z,74.01
2018-03-03T07:09:56.722Z,74.03
2018-03-03T07:11:03.558Z,74.06
2018-03-03T07:12:10.265Z,74.14
2018-03-03T07:13:17.008Z,74.15
2018-03-03T07:14:23.893Z,74.19
2018-03-03T07:15:30.877Z,74.23
2018-03-03T07:16:37.734Z,74.22
2018-03-03T07:17:44.480Z,74.27
2018-03-03T07:18:51.260Z,74.25
2018-03-03T07:19:57.959Z,74.31
2018-03-03T07:21:04.633Z,74.34
2018-03-03T07:22:11.384Z,74.35
2018-03-03T07:23:18.057Z,74.41
2018-03-03T07:24:25.348Z,74.46
2018-03-03T07:25:32.402Z,74.48
2018-03-03T07:26:39.206Z,74.49
2018-03-03T07:27:45.948Z,74.45
2018-03-03T07:28:52.715Z,74.44
2018-03-03T07:29:59.393Z,74.40
2018-03-03T07:31:06.064Z,74.44
2018-03-03T07:32:13.581Z,74.49
2018-03-03T07:33:20.268Z,74.55
2018-03-03T07:34:27.034Z,74.60
2018-03-03T07:35:33.850Z,74.63
2018-03-03T07:36:40.572Z,74.63
2018-03-03T07:37:47.409Z,74.62
2018-03-03T07:38:54.193Z,74.61
2018-03-03T07:40:01.020Z,74.58
2018-03-03T07:41:07.877Z,74.61
2018-03-03T07:42:14.713Z,74.61
2018-03-03T07:43:21.568Z,74.61
2018-03-03T07:44:28.330Z,74.65
2018-03-03T07:45:35.152Z,74.66
2018-03-03T07:46:41.869Z,74.70
2018-03-03T07:47:48.742Z,74.75
2018-03-03T07:48:55.855Z,74.73
2018-03-03T07:50:02.253Z,74.78
2018-03-03T07:51:09.061Z,74.83
2018-03-03T07:52:15.944Z,74.93
2018-03-03T07:53:22.677Z,74.99
2018-03-03T07:54:29.452Z,75.02
2018-03-03T07:55:36.198Z,75.08
2018-03-03T07:56:42.963Z,75.13
2018-03-03T07:57:49.980Z,75.11
2018-03-03T07:58:56.749Z,75.11
2018-03-03T08:00:03.628Z,75.13
2018-03-03T08:01:10.477Z,75.17
2018-03-03T08:02:17.217Z,75.18
2018-03-03T08:03:24.104Z,75.23
2018-03-03T08:04:31.049Z,75.28
2018-03-03T08:05:37.929Z,75.28
2018-03-03T08:06:44.876Z,75.28
2018-03-03T08:07:51.594Z,75.28
2018-03-03T08:08:58.390Z,75.31
2018-03-03T08:10:05.289Z,75.36
2018-03-03T08:11:12.097Z,75.36
2018-03-03T08:12:18.889Z,75.38
2018-03-03T08:13:25.712Z,75.35
2018-03-03T08:14:32.450Z,75.35
2018-03-03T08:15:39.247Z,75.40
2018-03-03T08:16:45.944Z,75.48
2018-03-03T08:17:52.671Z,75.47
2018-03-03T08:18:59.461Z,75.48
2018-03-03T08:20:06.156Z,75.42
2018-03-03T08:21:12.914Z,75.45
2018-03-03T08:22:19.617Z,75.47
2018-03-03T08:23:26.341Z,75.54
2018-03-03T08:24:33.068Z,75.58
2018-03-03T08:25:39.910Z,75.61
2018-03-03T08:26:46.669Z,75.64
2018-03-03T08:27:53.494Z,75.65
2018-03-03T08:29:00.280Z,75.57
2018-03-03T08:30:06.984Z,75.60
2018-03-03T08:31:13.744Z,75.67
2018-03-03T08:32:20.500Z,75.73
2018-03-03T08:33:27.426Z,75.82
2018-03-03T08:34:34.340Z,75.79
2018-03-03T08:35:41.190Z,75.74
2018-03-03T08:36:47.947Z,75.76
2018-03-03T08:37:54.684Z,75.73
2018-03-03T08:39:01.502Z,75.70
2018-03-03T08:40:08.464Z,75.66
2018-03-03T08:41:15.197Z,75.67
2018-03-03T08:42:21.901Z,75.76
2018-03-03T08:43:28.580Z,75.80
2018-03-03T08:44:35.313Z,75.86
2018-03-03T08:45:41.988Z,75.91
2018-03-03T08:46:49.169Z,75.88
2018-03-03T08:47:55.928Z,75.86
2018-03-03T08:49:02.606Z,75.89
2018-03-03T08:50:09.456Z,75.94
2018-03-03T08:51:16.272Z,75.96
2018-03-03T08:52:23.100Z,75.99
2018-03-03T08:53:30.280Z,76.00
2018-03-03T08:54:36.969Z,75.96
2018-03-03T08:55:43.764Z,75.93
2018-03-03T08:56:50.741Z,75.83
2018-03-03T08:57:57.444Z,75.81
2018-03-03T08:59:04.215Z,75.78
2018-03-03T09:00:10.973Z,75.73
2018-03-03T09:01:17.774Z,75.68
2018-03-03T09:02:24.516Z,75.68
2018-03-03T09:03:31.342Z,75.67
2018-03-03T09:04:38.065Z,75.69
2018-03-03T09:05:44.801Z,75.69
2018-03-03T09:06:51.605Z,75.67
2018-03-03T09:07:58.456Z,75.65
2018-03-03T09:09:05.245Z,75.67
2018-03-03T09:10:11.960Z,75.73
2018-03-03T09:11:18.648Z,75.73
2018-03-03T09:12:25.402Z,75.71
2018-03-03T09:13:32.383Z,75.76
2018-03-03T09:14:39.157Z,75.75
2018-03-03T09:15:45.922Z,75.71
2018-03-03T09:16:52.621Z,75.74
2018-03-03T09:17:59.376Z,75.79
2018-03-03T09:19:06.198Z,75.86
2018-03-03T09:20:12.902Z,75.88
2018-03-03T09:21:19.760Z,75.87
2018-03-03T09:22:26.548Z,75.81
2018-03-03T09:23:33.577Z,75.85
2018-03-03T09:24:40.309Z,75.86
2018-03-03T09:25:47.047Z,75.82
2018-03-03T09:26:53.763Z,75.83
2018-03-03T09:28:00.583Z,75.86
2018-03-03T09:29:07.305Z,75.89
2018-03-03T09:30:14.321Z,75.90
2018-03-03T09:31:21.134Z,75.86
2018-03-03T09:32:27.881Z,75.92
2018-03-03T09:33:34.867Z,75.97
2018-03-03T09:34:41.616Z,75.96
2018-03-03T09:35:48.305Z,75.99
2018-03-03T09:36:55.058Z,76.01
2018-03-03T09:38:01.914Z,76.05
2018-03-03T09:39:08.668Z,76.07
2018-03-03T09:40:15.405Z,76.04
2018-03-03T09:41:22.174Z,76.02
2018-03-03T09:42:28.981Z,75.99
2018-03-03T09:43:35.737Z,76.01
2018-03-03T09:44:42.559Z,75.99
2018-03-03T09:45:49.389Z,75.97
2018-03-03T09:46:56.096Z,76.01
2018-03-03T09:48:02.851Z,75.99
2018-03-03T09:49:09.616Z,76.02
2018-03-03T09:50:16.508Z,76.04
2018-03-03T09:51:23.318Z,76.00
2018-03-03T09:52:30.036Z,75.98
2018-03-03T09:53:36.773Z,76.02
2018-03-03T09:54:43.620Z,76.02
2018-03-03T09:55:50.378Z,76.02
2018-03-03T09:56:57.548Z,76.05
2018-03-03T09:58:04.312Z,76.09
2018-03-03T09:59:11.222Z,76.04
2018-03-03T10:00:18.052Z,76.06
2018-03-03T10:01:25.017Z,76.03
2018-03-03T10:02:31.801Z,76.00
2018-03-03T10:03:38.644Z,76.03
2018-03-03T10:04:45.516Z,76.06
2018-03-03T10:05:52.236Z,76.04
2018-03-03T10:06:58.989Z,75.94
2018-03-03T10:08:05.930Z,75.91
2018-03-03T10:09:12.725Z,75.93
2018-03-03T10:10:19.629Z,75.98
2018-03-03T10:11:26.351Z,75.96
2018-03-03T10:12:33.132Z,75.91
2018-03-03T10:13:39.832Z,75.92
2018-03-03T10:14:46.813Z,75.94
2018-03-03T10:15:53.632Z,75.91
2018-03-03T10:17:00.732Z,75.98
2018-03-03T10:18:07.545Z,76.01
2018-03-03T10:19:14.256Z,76.08
2018-03-03T10:20:20.977Z,76.11
2018-03-03T10:21:27.740Z,76.10
2018-03-03T10:22:34.445Z,76.14
2018-03-03T10:23:41.245Z,76.10
2018-03-03T10:24:48.045Z,76.15
2018-03-03T10:25:55.009Z,76.16
2018-03-03T10:27:01.818Z,76.11
2018-03-03T10:28:08.628Z,76.06
2018-03-03T10:29:15.449Z,76.14
2018-03-03T10:30:22.200Z,76.15
2018-03-03T10:31:28.928Z,76.15
2018-03-03T10:32:35.713Z,76.16
2018-03-03T10:33:42.472Z,76.13
2018-03-03T10:34:49.230Z,76.25
2018-03-03T10:35:56.046Z,76.29
2018-03-03T10:37:02.896Z,76.32
2018-03-03T10:38:09.653Z,76.31
2018-03-03T10:39:16.488Z,76.33
2018-03-03T10:40:23.280Z,76.42
2018-03-03T10:41:29.993Z,76.44
2018-03-03T10:42:36.708Z,76.41
2018-03-03T10:43:43.598Z,76.44
2018-03-03T10:44:50.227Z,76.47
2018-03-03T10:45:56.969Z,76.52
2018-03-03T10:47:03.701Z,76.50
2018-03-03T10:48:10.525Z,76.52
2018-03-03T10:49:17.245Z,76.61
2018-03-03T10:50:24.140Z,76.55
2018-03-03T10:51:30.854Z,76.55
2018-03-03T10:52:37.804Z,76.51
2018-03-03T10:53:44.620Z,76.47
2018-03-03T10:54:51.385Z,76.48
2018-03-03T10:55:58.088Z,76.51
2018-03-03T10:57:05.010Z,76.52
2018-03-03T10:58:11.796Z,76.56
2018-03-03T10:59:18.623Z,76.63
2018-03-03T11:00:25.492Z,76.63
2018-03-03T11:01:32.474Z,76.72
2018-03-03T11:02:39.232Z,76.82
2018-03-03T11:03:45.940Z,76.86
2018-03-03T11:04:52.644Z,76.92
2018-03-03T11:05:59.519Z,76.90
2018-03-03T11:07:06.237Z,77.02
2018-03-03T11:08:12.928Z,77.11
2018-03-03T11:09:19.654Z,77.11
2018-03-03T11:10:26.485Z,77.10
2018-03-03T11:11:33.187Z,77.01
2018-03-03T11:12:39.885Z,76.91
2018-03-03T11:13:46.664Z,76.96
2018-03-03T11:14:53.372Z,76.92
2018-03-03T11:16:00.076Z,76.92
2018-03-03T11:17:06.920Z,76.91
2018-03-03T11:18:13.709Z,76.86
2018-03-03T11:19:20.491Z,76.83
2018-03-03T11:20:27.468Z,76.84
2018-03-03T11:21:34.196Z,76.89
2018-03-03T11:22:40.880Z,76.86
2018-03-03T11:23:47.671Z,76.78
2018-03-03T11:24:54.436Z,76.76
2018-03-03T11:26:01.390Z,76.79
2018-03-03T11:27:08.232Z,76.85
2018-03-03T11:28:15.079Z,76.95
2018-03-03T11:29:21.961Z,76.92
2018-03-03T11:30:28.669Z,76.94
2018-03-03T11:31:35.385Z,76.97
2018-03-03T11:32:42.081Z,77.16
2018-03-03T11:33:48.832Z,77.14
2018-03-03T11:34:55.518Z,77.20
2018-03-03T11:36:02.337Z,77.22
2018-03-03T11:37:09.038Z,77.25
2018-03-03T11:38:15.742Z,77.35
2018-03-03T11:39:22.503Z,77.39
2018-03-03T11:40:33.135Z,77.30
2018-03-03T11:41:35.913Z,77.16
2018-03-03T11:42:42.686Z,77.11
2018-03-03T11:43:49.852Z,77.07
2018-03-03T11:44:56.550Z,77.08
2018-03-03T11:46:03.354Z,77.07
2018-03-03T11:47:10.086Z,77.05
2018-03-03T11:48:16.866Z,77.03
2018-03-03T11:49:23.572Z,77.03
2018-03-03T11:50:30.324Z,77.03
2018-03-03T11:51:37.054Z,77.04
2018-03-03T11:52:43.763Z,76.94
2018-03-03T11:53:50.521Z,76.96
2018-03-03T11:54:57.214Z,76.96
2018-03-03T11:56:03.958Z,76.88
2018-03-03T11:57:10.689Z,76.95
2018-03-03T11:58:17.394Z,77.03
2018-03-03T11:59:24.100Z,77.06
2018-03-03T12:00:30.816Z,76.99
2018-03-03T12:01:37.640Z,76.98
2018-03-03T12:02:44.340Z,77.00
2018-03-03T12:03:51.102Z,76.93
2018-03-03T12:04:57.840Z,76.94
2018-03-03T12:06:04.616Z,77.01
2018-03-03T12:07:11.304Z,77.00
2018-03-03T12:08:18.001Z,76.97
2018-03-03T12:09:24.802Z,77.04
2018-03-03T12:10:31.505Z,77.08
2018-03-03T12:11:38.276Z,77.15
2018-03-03T12:12:44.956Z,77.20
2018-03-03T12:13:51.688Z,77.31
2018-03-03T12:14:58.686Z,77.23
2018-03-03T12:16:05.382Z,77.21
2018-03-03T12:17:12.342Z,77.45
2018-03-03T12:18:19.077Z,77.45
2018-03-03T12:19:25.736Z,77.42
2018-03-03T12:20:32.741Z,77.58
2018-03-03T12:21:39.601Z,77.69
2018-03-03T12:22:46.388Z,77.61
2018-03-03T12:23:53.096Z,77.62
2018-03-03T12:24:59.959Z,77.71
2018-03-03T12:26:06.877Z,77.64
2018-03-03T12:27:13.709Z,77.54
2018-03-03T12:28:20.478Z,77.45
2018-03-03T12:29:27.251Z,77.43
2018-03-03T12:30:33.942Z,77.33
2018-03-03T12:31:40.654Z,77.25
2018-03-03T12:32:47.852Z,77.29
2018-03-03T12:33:54.885Z,77.21
2018-03-03T12:35:01.563Z,77.22
2018-03-03T12:36:08.269Z,77.32
2018-03-03T12:37:15.096Z,77.32
2018-03-03T12:38:22.042Z,77.24
2018-03-03T12:39:29.363Z,77.18
2018-03-03T12:40:36.271Z,77.25
2018-03-03T12:41:43.120Z,77.27
2018-03-03T12:42:49.859Z,77.19
2018-03-03T12:43:56.630Z,77.13
2018-03-03T12:45:03.367Z,77.09
2018-03-03T12:46:10.515Z,76.99
2018-03-03T12:47:17.601Z,76.96
2018-03-03T12:48:24.416Z,76.90
2018-03-03T12:49:31.433Z,77.00
2018-03-03T12:50:38.307Z,76.90
2018-03-03T12:51:45.239Z,76.84
2018-03-03T12:52:52.678Z,76.77
2018-03-03T12:53:59.237Z,76.71
2018-03-03T12:55:05.816Z,76.72
2018-03-03T12:56:12.689Z,76.71
2018-03-03T12:57:19.452Z,76.72
2018-03-03T12:58:26.767Z,76.86
2018-03-03T12:59:33.145Z,76.70
2018-03-03T13:00:40.076Z,76.60
2018-03-03T13:01:48.007Z,76.52
2018-03-03T13:02:54.489Z,76.51
2018-03-03T13:04:01.568Z,76.49
2018-03-03T13:05:08.690Z,76.40
2018-03-03T13:06:15.941Z,76.40
2018-03-03T13:07:23.723Z,76.36
2018-03-03T13:08:31.365Z,76.28
2018-03-03T13:09:36.396Z,76.27
2018-03-03T13:10:43.436Z,76.31
2018-03-03T13:11:50.197Z,76.29
2018-03-03T13:12:56.920Z,76.35
2018-03-03T13:14:03.965Z,76.19
2018-03-03T13:15:10.775Z,76.14
2018-03-03T13:16:17.568Z,76.04
2018-03-03T13:17:24.354Z,76.08
2018-03-03T13:18:31.090Z,76.02
2018-03-03T13:19:37.821Z,76.08
2018-03-03T13:20:44.533Z,75.92
2018-03-03T13:21:51.315Z,75.96
2018-03-03T13:22:58.064Z,76.01
2018-03-03T13:24:04.792Z,75.91
2018-03-03T13:25:11.514Z,75.84
2018-03-03T13:26:18.437Z,75.81
2018-03-03T13:27:26.348Z,75.79
2018-03-03T13:28:32.476Z,75.77
2018-03-03T13:29:39.252Z,75.78
2018-03-03T13:30:45.954Z,75.80
2018-03-03T13:31:52.677Z,75.75
2018-03-03T13:32:59.436Z,75.79
2018-03-03T13:34:06.153Z,75.79
2018-03-03T13:35:12.919Z,75.84
2018-03-03T13:36:19.645Z,75.90
2018-03-03T13:37:26.355Z,75.86
2018-03-03T13:38:33.176Z,75.98
2018-03-03T13:39:39.863Z,75.98
2018-03-03T13:40:46.642Z,75.92
2018-03-03T13:41:53.338Z,75.89
2018-03-03T13:43:00.086Z,75.85
2018-03-03T13:44:06.832Z,75.87
2018-03-03T13:45:13.680Z,75.89
2018-03-03T13:46:20.368Z,75.79
2018-03-03T13:47:27.216Z,75.75
2018-03-03T13:48:34.215Z,75.70
2018-03-03T13:49:40.892Z,75.62
2018-03-03T13:50:47.613Z,75.60
2018-03-03T13:51:54.430Z,75.61
2018-03-03T13:53:01.177Z,75.57
2018-03-03T13:54:07.879Z,75.60
2018-03-03T13:55:14.567Z,75.59
2018-03-03T13:56:21.304Z,75.52
2018-03-03T13:57:27.993Z,75.52
2018-03-03T13:58:34.652Z,75.58
2018-03-03T13:59:41.832Z,75.62
2018-03-03T14:00:48.636Z,75.66
2018-03-03T14:01:55.333Z,75.60
2018-03-03T14:03:02.028Z,75.61
2018-03-03T14:04:08.720Z,75.61
2018-03-03T14:05:15.428Z,75.65
2018-03-03T14:06:22.088Z,75.72
2018-03-03T14:07:28.793Z,75.78
2018-03-03T14:08:35.473Z,75.80
2018-03-03T14:09:42.300Z,75.75
2018-03-03T14:10:48.977Z,75.78
2018-03-03T14:11:55.652Z,75.78
2018-03-03T14:13:02.362Z,75.75
2018-03-03T14:14:09.058Z,75.81
2018-03-03T14:15:15.779Z,75.86
2018-03-03T14:16:22.444Z,75.87
2018-03-03T14:17:29.275Z,75.79
2018-03-03T14:18:35.917Z,75.76
2018-03-03T14:19:42.627Z,75.84